sensor_id;sensor_type;location;lat;lon;timestamp;pressure;altitude;pressure_sealevel;temperature;humidity
39613;BME280;25303;48.896;13.342;2023-05-11T00:00:10;92508.53;;;11.73;76.22
39613;BME280;25303;48.896;13.342;2023-05-11T00:02:54;92515.31;;;11.74;76.17
39613;BME280;25303;48.896;13.342;2023-05-11T00:05:37;92513.56;;;11.75;76.05
39613;BME280;25303;48.896;13.342;2023-05-11T00:08:20;92504.66;;;11.77;75.86
39613;BME280;25303;48.896;13.342;2023-05-11T00:11:06;92514.97;;;11.77;75.96
39613;BME280;25303;48.896;13.342;2023-05-11T00:13:49;92505.81;;;11.75;75.75
39613;BME280;25303;48.896;13.342;2023-05-11T00:16:32;92512.56;;;11.76;75.85
39613;BME280;25303;48.896;13.342;2023-05-11T00:19:16;92493.53;;;11.77;75.80
39613;BME280;25303;48.896;13.342;2023-05-11T00:21:59;92496.28;;;11.75;75.84
39613;BME280;25303;48.896;13.342;2023-05-11T00:24:42;92498.88;;;11.75;76.08
39613;BME280;25303;48.896;13.342;2023-05-11T00:27:25;92494.69;;;11.74;75.85
39613;BME280;25303;48.896;13.342;2023-05-11T00:30:09;92497.91;;;11.76;75.90
39613;BME280;25303;48.896;13.342;2023-05-11T00:32:52;92494.50;;;11.76;75.82
39613;BME280;25303;48.896;13.342;2023-05-11T00:35:37;92491.75;;;11.77;75.64
39613;BME280;25303;48.896;13.342;2023-05-11T00:38:20;92489.97;;;11.78;75.75
39613;BME280;25303;48.896;13.342;2023-05-11T00:41:03;92495.94;;;11.78;75.69
39613;BME280;25303;48.896;13.342;2023-05-11T00:43:46;92495.94;;;11.78;75.54
39613;BME280;25303;48.896;13.342;2023-05-11T00:46:29;92487.25;;;11.79;75.63
39613;BME280;25303;48.896;13.342;2023-05-11T00:49:12;92486.25;;;11.80;75.54
39613;BME280;25303;48.896;13.342;2023-05-11T00:51:59;92482.88;;;11.80;75.57
39613;BME280;25303;48.896;13.342;2023-05-11T00:54:44;92490.44;;;11.81;75.76
39613;BME280;25303;48.896;13.342;2023-05-11T00:57:28;92488.84;;;11.80;75.61
39613;BME280;25303;48.896;13.342;2023-05-11T01:00:14;92483.84;;;11.79;75.63
39613;BME280;25303;48.896;13.342;2023-05-11T01:02:58;92480.47;;;11.78;75.72
39613;BME280;25303;48.896;13.342;2023-05-11T01:05:44;92487.25;;;11.79;75.65
39613;BME280;25303;48.896;13.342;2023-05-11T01:08:36;92482.25;;;11.78;75.52
39613;BME280;25303;48.896;13.342;2023-05-11T01:11:27;92479.03;;;11.76;75.64
39613;BME280;25303;48.896;13.342;2023-05-11T01:14:16;92478.88;;;11.77;75.67
39613;BME280;25303;48.896;13.342;2023-05-11T01:17:08;92480.47;;;11.78;75.55
39613;BME280;25303;48.896;13.342;2023-05-11T01:19:56;92476.28;;;11.77;75.52
39613;BME280;25303;48.896;13.342;2023-05-11T01:22:54;92480.63;;;11.77;75.37
39613;BME280;25303;48.896;13.342;2023-05-11T01:25:55;92473.06;;;11.75;75.39
39613;BME280;25303;48.896;13.342;2023-05-11T01:29:03;92474.69;;;11.76;75.22
39613;BME280;25303;48.896;13.342;2023-05-11T01:31:53;92472.91;;;11.77;75.22
39613;BME280;25303;48.896;13.342;2023-05-11T01:34:38;92467.91;;;11.75;75.24
39613;BME280;25303;48.896;13.342;2023-05-11T01:37:22;92463.75;;;11.74;75.33
39613;BME280;25303;48.896;13.342;2023-05-11T01:40:11;92466.31;;;11.74;75.36
39613;BME280;25303;48.896;13.342;2023-05-11T01:43:00;92472.44;;;11.73;75.29
39613;BME280;25303;48.896;13.342;2023-05-11T01:45:45;92468.25;;;11.72;75.33
39613;BME280;25303;48.896;13.342;2023-05-11T01:48:37;92473.41;;;11.72;75.53
39613;BME280;25303;48.896;13.342;2023-05-11T01:51:22;92475.22;;;11.72;75.43
39613;BME280;25303;48.896;13.342;2023-05-11T01:54:08;92471.19;;;11.69;75.65
39613;BME280;25303;48.896;13.342;2023-05-11T01:56:52;92472.16;;;11.68;75.69
39613;BME280;25303;48.896;13.342;2023-05-11T01:59:38;92472.16;;;11.68;75.55
39613;BME280;25303;48.896;13.342;2023-05-11T02:02:22;92476.84;;;11.64;76.01
39613;BME280;25303;48.896;13.342;2023-05-11T02:05:08;92465.13;;;11.62;75.57
39613;BME280;25303;48.896;13.342;2023-05-11T02:07:54;92469.66;;;11.60;75.61
39613;BME280;25303;48.896;13.342;2023-05-11T02:10:39;92468.22;;;11.57;75.72
39613;BME280;25303;48.896;13.342;2023-05-11T02:13:23;92468.38;;;11.55;75.91
39613;BME280;25303;48.896;13.342;2023-05-11T02:16:09;92470.97;;;11.55;75.90
39613;BME280;25303;48.896;13.342;2023-05-11T02:18:53;92471.94;;;11.54;76.03
39613;BME280;25303;48.896;13.342;2023-05-11T02:21:40;92470.31;;;11.53;76.01
39613;BME280;25303;48.896;13.342;2023-05-11T02:24:26;92473.25;;;11.50;76.21
39613;BME280;25303;48.896;13.342;2023-05-11T02:27:10;92463.94;;;11.49;76.32
39613;BME280;25303;48.896;13.342;2023-05-11T02:29:53;92475.38;;;11.47;76.24
39613;BME280;25303;48.896;13.342;2023-05-11T02:32:38;92473.31;;;11.42;76.32
39613;BME280;25303;48.896;13.342;2023-05-11T02:35:27;92471.69;;;11.41;76.40
39613;BME280;25303;48.896;13.342;2023-05-11T02:38:13;92465.75;;;11.40;76.54
39613;BME280;25303;48.896;13.342;2023-05-11T02:41:00;92468.94;;;11.43;76.51
39613;BME280;25303;48.896;13.342;2023-05-11T02:43:47;92470.41;;;11.45;76.47
39613;BME280;25303;48.896;13.342;2023-05-11T02:46:34;92476.34;;;11.46;76.30
39613;BME280;25303;48.896;13.342;2023-05-11T02:49:20;92472.16;;;11.45;76.29
39613;BME280;25303;48.896;13.342;2023-05-11T02:52:05;92463.00;;;11.42;76.49
39613;BME280;25303;48.896;13.342;2023-05-11T02:54:59;92474.91;;;11.43;76.47
39613;BME280;25303;48.896;13.342;2023-05-11T02:57:43;92467.97;;;11.44;76.40
39613;BME280;25303;48.896;13.342;2023-05-11T03:00:27;92468.78;;;11.44;76.28
39613;BME280;25303;48.896;13.342;2023-05-11T03:03:11;92467.81;;;11.45;76.40
39613;BME280;25303;48.896;13.342;2023-05-11T03:05:54;92473.94;;;11.44;76.36
39613;BME280;25303;48.896;13.342;2023-05-11T03:08:37;92469.75;;;11.43;76.22
39613;BME280;25303;48.896;13.342;2023-05-11T03:11:22;92468.78;;;11.44;76.58
39613;BME280;25303;48.896;13.342;2023-05-11T03:14:05;92468.16;;;11.42;76.29
39613;BME280;25303;48.896;13.342;2023-05-11T03:16:50;92465.38;;;11.44;76.36
39613;BME280;25303;48.896;13.342;2023-05-11T03:19:34;92470.09;;;11.40;76.43
39613;BME280;25303;48.896;13.342;2023-05-11T03:22:18;92472.56;;;11.33;76.29
39613;BME280;25303;48.896;13.342;2023-05-11T03:25:03;92469.03;;;11.26;76.36
39613;BME280;25303;48.896;13.342;2023-05-11T03:27:49;92471.00;;;11.24;76.52
39613;BME280;25303;48.896;13.342;2023-05-11T03:30:33;92467.78;;;11.22;76.50
39613;BME280;25303;48.896;13.342;2023-05-11T03:33:16;92473.91;;;11.21;76.42
39613;BME280;25303;48.896;13.342;2023-05-11T03:36:02;92473.28;;;11.19;76.52
39613;BME280;25303;48.896;13.342;2023-05-11T03:38:48;92471.03;;;11.16;76.49
39613;BME280;25303;48.896;13.342;2023-05-11T03:41:35;92475.56;;;11.14;76.50
39613;BME280;25303;48.896;13.342;2023-05-11T03:44:22;92472.19;;;11.13;76.25
39613;BME280;25303;48.896;13.342;2023-05-11T03:47:07;92470.25;;;11.15;76.46
39613;BME280;25303;48.896;13.342;2023-05-11T03:49:51;92472.81;;;11.15;76.57
39613;BME280;25303;48.896;13.342;2023-05-11T03:52:35;92471.22;;;11.14;76.46
39613;BME280;25303;48.896;13.342;2023-05-11T03:55:19;92468.66;;;11.14;76.39
39613;BME280;25303;48.896;13.342;2023-05-11T03:58:05;92466.41;;;11.11;76.34
39613;BME280;25303;48.896;13.342;2023-05-11T04:00:50;92474.16;;;11.03;76.51
39613;BME280;25303;48.896;13.342;2023-05-11T04:03:33;92470.34;;;10.99;76.41
39613;BME280;25303;48.896;13.342;2023-05-11T04:06:17;92473.41;;;10.94;76.23
39613;BME280;25303;48.896;13.342;2023-05-11T04:09:05;92470.34;;;10.90;76.09
39613;BME280;25303;48.896;13.342;2023-05-11T04:11:49;92469.56;;;10.90;76.17
39613;BME280;25303;48.896;13.342;2023-05-11T04:14:32;92471.97;;;10.91;76.38
39613;BME280;25303;48.896;13.342;2023-05-11T04:17:16;92470.34;;;10.90;76.18
39613;BME280;25303;48.896;13.342;2023-05-11T04:19:59;92474.22;;;10.86;76.21
39613;BME280;25303;48.896;13.342;2023-05-11T04:22:42;92478.91;;;10.83;76.10
39613;BME280;25303;48.896;13.342;2023-05-11T04:25:25;92483.63;;;10.79;76.12
39613;BME280;25303;48.896;13.342;2023-05-11T04:28:09;92479.75;;;10.75;76.23
39613;BME280;25303;48.896;13.342;2023-05-11T04:30:53;92484.25;;;10.73;76.11
39613;BME280;25303;48.896;13.342;2023-05-11T04:33:38;92489.09;;;10.68;76.27
39613;BME280;25303;48.896;13.342;2023-05-11T04:36:22;92482.06;;;10.61;76.54
39613;BME280;25303;48.896;13.342;2023-05-11T04:39:06;92481.44;;;10.51;76.66
39613;BME280;25303;48.896;13.342;2023-05-11T04:41:51;92494.16;;;10.44;76.65
39613;BME280;25303;48.896;13.342;2023-05-11T04:44:35;92497.53;;;10.20;77.41
39613;BME280;25303;48.896;13.342;2023-05-11T04:47:20;92486.94;;;10.23;77.11
39613;BME280;25303;48.896;13.342;2023-05-11T04:50:06;92495.28;;;10.25;77.24
39613;BME280;25303;48.896;13.342;2023-05-11T04:52:50;92492.09;;;10.23;77.38
39613;BME280;25303;48.896;13.342;2023-05-11T04:55:32;92494.53;;;10.08;77.92
39613;BME280;25303;48.896;13.342;2023-05-11T04:58:15;92502.72;;;9.87;78.84
39613;BME280;25303;48.896;13.342;2023-05-11T05:01:00;92505.16;;;9.88;78.49
39613;BME280;25303;48.896;13.342;2023-05-11T05:03:43;92500.31;;;9.85;78.92
39613;BME280;25303;48.896;13.342;2023-05-11T05:06:27;92496.94;;;9.93;78.53
39613;BME280;25303;48.896;13.342;2023-05-11T05:09:10;92503.88;;;9.93;78.38
39613;BME280;25303;48.896;13.342;2023-05-11T05:11:53;92506.44;;;9.93;78.49
39613;BME280;25303;48.896;13.342;2023-05-11T05:14:36;92504.97;;;9.98;78.20
39613;BME280;25303;48.896;13.342;2023-05-11T05:17:20;92509.16;;;9.99;78.18
39613;BME280;25303;48.896;13.342;2023-05-11T05:20:04;92516.69;;;10.01;78.11
39613;BME280;25303;48.896;13.342;2023-05-11T05:22:49;92512.69;;;9.98;78.15
39613;BME280;25303;48.896;13.342;2023-05-11T05:25:32;92515.09;;;10.00;78.72
39613;BME280;25303;48.896;13.342;2023-05-11T05:28:15;92519.91;;;10.03;78.17
39613;BME280;25303;48.896;13.342;2023-05-11T05:30:59;92518.78;;;10.06;77.95
39613;BME280;25303;48.896;13.342;2023-05-11T05:33:42;92514.28;;;10.08;78.23
39613;BME280;25303;48.896;13.342;2023-05-11T05:36:25;92518.78;;;10.06;77.92
39613;BME280;25303;48.896;13.342;2023-05-11T05:39:10;92525.53;;;10.07;77.95
39613;BME280;25303;48.896;13.342;2023-05-11T05:41:54;92524.25;;;10.11;78.01
39613;BME280;25303;48.896;13.342;2023-05-11T05:44:38;92523.63;;;10.17;78.07
39613;BME280;25303;48.896;13.342;2023-05-11T05:47:21;92522.16;;;10.23;78.07
39613;BME280;25303;48.896;13.342;2023-05-11T05:50:06;92528.41;;;10.28;77.92
39613;BME280;25303;48.896;13.342;2023-05-11T05:52:49;92532.09;;;10.34;77.76
39613;BME280;25303;48.896;13.342;2023-05-11T05:55:34;92529.72;;;10.32;77.55
39613;BME280;25303;48.896;13.342;2023-05-11T05:58:18;92535.00;;;10.31;77.50
39613;BME280;25303;48.896;13.342;2023-05-11T06:01:02;92534.50;;;10.36;77.74
39613;BME280;25303;48.896;13.342;2023-05-11T06:03:45;92536.66;;;10.40;77.72
39613;BME280;25303;48.896;13.342;2023-05-11T06:06:28;92535.50;;;10.43;77.39
39613;BME280;25303;48.896;13.342;2023-05-11T06:09:12;92534.03;;;10.48;77.47
39613;BME280;25303;48.896;13.342;2023-05-11T06:11:57;92538.69;;;10.53;77.35
39613;BME280;25303;48.896;13.342;2023-05-11T06:14:40;92544.66;;;10.54;77.06
39613;BME280;25303;48.896;13.342;2023-05-11T06:17:23;92544.19;;;10.50;77.06
39613;BME280;25303;48.896;13.342;2023-05-11T06:20:07;92547.09;;;10.47;77.17
39613;BME280;25303;48.896;13.342;2023-05-11T06:22:50;92550.63;;;10.46;77.51
39613;BME280;25303;48.896;13.342;2023-05-11T06:25:33;92549.16;;;10.52;77.39
39613;BME280;25303;48.896;13.342;2023-05-11T06:28:18;92549.94;;;10.52;77.20
39613;BME280;25303;48.896;13.342;2023-05-11T06:31:08;92552.06;;;10.48;77.05
39613;BME280;25303;48.896;13.342;2023-05-11T06:33:53;92558.66;;;10.43;77.06
39613;BME280;25303;48.896;13.342;2023-05-11T06:36:41;92562.53;;;10.39;77.05
39613;BME280;25303;48.896;13.342;2023-05-11T06:39:24;92558.84;;;10.41;77.28
39613;BME280;25303;48.896;13.342;2023-05-11T06:42:07;92558.34;;;10.46;77.38
39613;BME280;25303;48.896;13.342;2023-05-11T06:44:52;92560.75;;;10.47;77.14
39613;BME280;25303;48.896;13.342;2023-05-11T06:47:36;92548.53;;;10.49;76.98
39613;BME280;25303;48.896;13.342;2023-05-11T06:50:20;92556.41;;;10.48;76.94
39613;BME280;25303;48.896;13.342;2023-05-11T06:53:06;92560.91;;;10.46;76.96
39613;BME280;25303;48.896;13.342;2023-05-11T06:55:53;92558.19;;;10.39;76.81
39613;BME280;25303;48.896;13.342;2023-05-11T06:58:36;92561.56;;;10.40;76.91
39613;BME280;25303;48.896;13.342;2023-05-11T07:01:21;92563.63;;;10.44;77.10
39613;BME280;25303;48.896;13.342;2023-05-11T07:04:04;92564.59;;;10.43;77.02
39613;BME280;25303;48.896;13.342;2023-05-11T07:06:47;92564.59;;;10.43;76.91
39613;BME280;25303;48.896;13.342;2023-05-11T07:09:30;92565.91;;;10.39;77.07
39613;BME280;25303;48.896;13.342;2023-05-11T07:12:13;92568.78;;;10.36;77.01
39613;BME280;25303;48.896;13.342;2023-05-11T07:14:56;92566.69;;;10.31;77.13
39613;BME280;25303;48.896;13.342;2023-05-11T07:17:40;92570.06;;;10.32;77.59
39613;BME280;25303;48.896;13.342;2023-05-11T07:20:23;92568.91;;;10.34;77.55
39613;BME280;25303;48.896;13.342;2023-05-11T07:23:06;92564.47;;;10.45;77.63
39613;BME280;25303;48.896;13.342;2023-05-11T07:25:50;92562.66;;;10.45;77.46
39613;BME280;25303;48.896;13.342;2023-05-11T07:28:34;92563.31;;;10.47;77.62
39613;BME280;25303;48.896;13.342;2023-05-11T07:31:17;92559.00;;;10.48;77.64
39613;BME280;25303;48.896;13.342;2023-05-11T07:34:01;92563.16;;;10.49;77.86
39613;BME280;25303;48.896;13.342;2023-05-11T07:36:44;92566.88;;;10.55;77.91
39613;BME280;25303;48.896;13.342;2023-05-11T07:39:28;92567.34;;;10.58;77.81
39613;BME280;25303;48.896;13.342;2023-05-11T07:42:11;92564.75;;;10.58;78.05
39613;BME280;25303;48.896;13.342;2023-05-11T07:44:54;92568.28;;;10.66;78.00
39613;BME280;25303;48.896;13.342;2023-05-11T07:47:37;92562.66;;;10.70;77.70
39613;BME280;25303;48.896;13.342;2023-05-11T07:50:22;92576.31;;;10.71;77.47
39613;BME280;25303;48.896;13.342;2023-05-11T07:53:05;92568.72;;;10.77;77.46
39613;BME280;25303;48.896;13.342;2023-05-11T07:55:49;92568.88;;;10.84;77.39
39613;BME280;25303;48.896;13.342;2023-05-11T07:58:32;92568.53;;;10.96;77.26
39613;BME280;25303;48.896;13.342;2023-05-11T08:01:15;92560.63;;;11.05;77.42
39613;BME280;25303;48.896;13.342;2023-05-11T08:03:58;92555.88;;;11.17;77.27
39613;BME280;25303;48.896;13.342;2023-05-11T08:06:42;92566.00;;;11.27;77.31
39613;BME280;25303;48.896;13.342;2023-05-11T08:09:25;92565.16;;;11.35;76.97
39613;BME280;25303;48.896;13.342;2023-05-11T08:12:08;92568.50;;;11.44;77.12
39613;BME280;25303;48.896;13.342;2023-05-11T08:14:51;92557.69;;;11.48;76.83
39613;BME280;25303;48.896;13.342;2023-05-11T08:17:34;92566.34;;;11.55;76.73
39613;BME280;25303;48.896;13.342;2023-05-11T08:20:18;92562.78;;;11.57;76.93
39613;BME280;25303;48.896;13.342;2023-05-11T08:23:02;92562.47;;;11.60;76.59
39613;BME280;25303;48.896;13.342;2023-05-11T08:25:49;92565.69;;;11.62;76.43
39613;BME280;25303;48.896;13.342;2023-05-11T08:28:33;92564.53;;;11.64;76.43
39613;BME280;25303;48.896;13.342;2023-05-11T08:31:16;92561.31;;;11.62;76.21
39613;BME280;25303;48.896;13.342;2023-05-11T08:33:59;92565.84;;;11.60;75.84
39613;BME280;25303;48.896;13.342;2023-05-11T08:36:43;92564.91;;;11.53;75.79
39613;BME280;25303;48.896;13.342;2023-05-11T08:39:27;92566.13;;;11.34;76.56
39613;BME280;25303;48.896;13.342;2023-05-11T08:42:28;92570.66;;;11.32;76.96
39613;BME280;25303;48.896;13.342;2023-05-11T08:45:15;92575.09;;;11.46;77.14
39613;BME280;25303;48.896;13.342;2023-05-11T08:47:59;92569.88;;;11.63;77.26
39613;BME280;25303;48.896;13.342;2023-05-11T08:50:44;92566.38;;;11.79;78.04
39613;BME280;25303;48.896;13.342;2023-05-11T08:53:27;92565.50;;;11.86;77.17
39613;BME280;25303;48.896;13.342;2023-05-11T08:56:12;92565.13;;;11.75;76.46
39613;BME280;25303;48.896;13.342;2023-05-11T08:58:55;92569.00;;;11.70;76.20
39613;BME280;25303;48.896;13.342;2023-05-11T09:01:40;92571.41;;;11.72;76.47
39613;BME280;25303;48.896;13.342;2023-05-11T09:04:24;92568.63;;;11.82;76.81
39613;BME280;25303;48.896;13.342;2023-05-11T09:07:08;92566.44;;;11.94;76.98
39613;BME280;25303;48.896;13.342;2023-05-11T09:09:52;92565.09;;;12.06;76.78
39613;BME280;25303;48.896;13.342;2023-05-11T09:12:36;92564.53;;;12.19;76.88
39613;BME280;25303;48.896;13.342;2023-05-11T09:15:19;92558.41;;;12.35;76.81
39613;BME280;25303;48.896;13.342;2023-05-11T09:18:03;92558.63;;;12.49;76.50
39613;BME280;25303;48.896;13.342;2023-05-11T09:20:49;92560.44;;;12.63;76.66
39613;BME280;25303;48.896;13.342;2023-05-11T09:23:32;92563.56;;;12.73;75.86
39613;BME280;25303;48.896;13.342;2023-05-11T09:26:16;92563.66;;;12.80;75.41
39613;BME280;25303;48.896;13.342;2023-05-11T09:29:02;92558.38;;;12.73;74.52
39613;BME280;25303;48.896;13.342;2023-05-11T09:31:46;92562.78;;;12.73;74.37
39613;BME280;25303;48.896;13.342;2023-05-11T09:34:29;92565.13;;;12.59;74.38
39613;BME280;25303;48.896;13.342;2023-05-11T09:37:15;92560.88;;;12.67;74.76
39613;BME280;25303;48.896;13.342;2023-05-11T09:39:59;92553.81;;;12.60;74.70
39613;BME280;25303;48.896;13.342;2023-05-11T09:42:45;92561.75;;;12.59;74.92
39613;BME280;25303;48.896;13.342;2023-05-11T09:45:40;92561.66;;;12.67;75.24
39613;BME280;25303;48.896;13.342;2023-05-11T09:48:25;92561.31;;;12.70;75.43
39613;BME280;25303;48.896;13.342;2023-05-11T09:51:08;92568.38;;;12.76;75.05
39613;BME280;25303;48.896;13.342;2023-05-11T09:53:53;92568.78;;;12.50;74.69
39613;BME280;25303;48.896;13.342;2023-05-11T09:56:44;92559.78;;;12.46;74.36
39613;BME280;25303;48.896;13.342;2023-05-11T09:59:36;92567.50;;;12.31;74.46
39613;BME280;25303;48.896;13.342;2023-05-11T10:02:22;92570.88;;;12.31;74.46
39613;BME280;25303;48.896;13.342;2023-05-11T10:05:10;92567.13;;;12.34;75.02
39613;BME280;25303;48.896;13.342;2023-05-11T10:07:58;92569.25;;;12.30;74.92
39613;BME280;25303;48.896;13.342;2023-05-11T10:10:43;92564.91;;;12.31;74.69
39613;BME280;25303;48.896;13.342;2023-05-11T10:13:27;92559.47;;;12.26;74.64
39613;BME280;25303;48.896;13.342;2023-05-11T10:16:13;92562.88;;;12.41;75.56
39613;BME280;25303;48.896;13.342;2023-05-11T10:18:59;92563.03;;;12.63;75.41
39613;BME280;25303;48.896;13.342;2023-05-11T10:21:43;92557.75;;;12.71;75.01
39613;BME280;25303;48.896;13.342;2023-05-11T10:24:27;92556.81;;;12.87;74.92
39613;BME280;25303;48.896;13.342;2023-05-11T10:27:10;92562.06;;;12.94;74.41
39613;BME280;25303;48.896;13.342;2023-05-11T10:29:55;92557.25;;;12.91;73.78
39613;BME280;25303;48.896;13.342;2023-05-11T10:32:39;92561.25;;;12.94;73.73
39613;BME280;25303;48.896;13.342;2023-05-11T10:35:24;92561.78;;;12.89;73.75
39613;BME280;25303;48.896;13.342;2023-05-11T10:38:08;92560.81;;;12.90;73.64
39613;BME280;25303;48.896;13.342;2023-05-11T10:40:53;92559.91;;;12.68;72.96
39613;BME280;25303;48.896;13.342;2023-05-11T10:44:02;92558.47;;;12.65;73.17
39613;BME280;25303;48.896;13.342;2023-05-11T10:47:02;92559.91;;;12.68;73.68
39613;BME280;25303;48.896;13.342;2023-05-11T10:50:06;92559.31;;;12.81;73.79
39613;BME280;25303;48.896;13.342;2023-05-11T10:53:18;92557.44;;;12.89;73.87
39613;BME280;25303;48.896;13.342;2023-05-11T10:56:21;92559.13;;;12.97;74.02
39613;BME280;25303;48.896;13.342;2023-05-11T10:59:26;92559.38;;;13.02;73.85
39613;BME280;25303;48.896;13.342;2023-05-11T11:02:16;92558.16;;;12.98;73.23
39613;BME280;25303;48.896;13.342;2023-05-11T11:04:59;92560.91;;;12.97;73.06
39613;BME280;25303;48.896;13.342;2023-05-11T11:07:56;92556.34;;;12.99;73.12
39613;BME280;25303;48.896;13.342;2023-05-11T11:10:42;92550.47;;;13.05;73.41
39613;BME280;25303;48.896;13.342;2023-05-11T11:13:26;92553.22;;;13.03;73.20
39613;BME280;25303;48.896;13.342;2023-05-11T11:16:10;92550.56;;;12.97;72.78
39613;BME280;25303;48.896;13.342;2023-05-11T11:19:36;92551.72;;;12.79;72.13
39613;BME280;25303;48.896;13.342;2023-05-11T11:22:43;92552.31;;;12.66;72.58
39613;BME280;25303;48.896;13.342;2023-05-11T11:25:51;92547.84;;;12.45;72.53
39613;BME280;25303;48.896;13.342;2023-05-11T11:29:09;92549.19;;;12.41;73.10
39613;BME280;25303;48.896;13.342;2023-05-11T11:31:52;92548.81;;;12.44;73.14
39613;BME280;25303;48.896;13.342;2023-05-11T11:34:35;92553.97;;;12.44;73.04
39613;BME280;25303;48.896;13.342;2023-05-11T11:37:18;92556.47;;;12.37;73.10
39613;BME280;25303;48.896;13.342;2023-05-11T11:40:03;92553.97;;;12.29;72.92
39613;BME280;25303;48.896;13.342;2023-05-11T11:43:08;92562.91;;;12.18;73.22
39613;BME280;25303;48.896;13.342;2023-05-11T11:45:53;92562.22;;;12.24;73.31
39613;BME280;25303;48.896;13.342;2023-05-11T11:48:37;92562.84;;;12.26;73.38
39613;BME280;25303;48.896;13.342;2023-05-11T11:51:31;92551.38;;;12.29;73.58
39613;BME280;25303;48.896;13.342;2023-05-11T11:54:35;92557.84;;;12.25;73.23
39613;BME280;25303;48.896;13.342;2023-05-11T11:57:43;92555.91;;;12.27;73.20
39613;BME280;25303;48.896;13.342;2023-05-11T12:00:33;92553.13;;;12.28;73.04
39613;BME280;25303;48.896;13.342;2023-05-11T12:03:21;92557.44;;;12.36;73.08
39613;BME280;25303;48.896;13.342;2023-05-11T12:06:05;92553.19;;;12.43;73.20
39613;BME280;25303;48.896;13.342;2023-05-11T12:08:50;92555.69;;;12.52;72.61
39613;BME280;25303;48.896;13.342;2023-05-11T12:11:34;92554.00;;;12.59;72.63
39613;BME280;25303;48.896;13.342;2023-05-11T12:14:19;92561.41;;;12.62;72.59
39613;BME280;25303;48.896;13.342;2023-05-11T12:17:06;92556.34;;;12.69;72.42
39613;BME280;25303;48.896;13.342;2023-05-11T12:19:54;92556.00;;;12.72;72.15
39613;BME280;25303;48.896;13.342;2023-05-11T12:22:54;92559.38;;;12.72;72.38
39613;BME280;25303;48.896;13.342;2023-05-11T12:25:37;92559.66;;;12.77;72.46
39613;BME280;25303;48.896;13.342;2023-05-11T12:28:20;92558.38;;;12.73;71.72
39613;BME280;25303;48.896;13.342;2023-05-11T12:31:03;92555.53;;;12.68;71.47
39613;BME280;25303;48.896;13.342;2023-05-11T12:33:49;92554.75;;;12.68;71.71
39613;BME280;25303;48.896;13.342;2023-05-11T12:36:33;92554.09;;;12.66;71.62
39613;BME280;25303;48.896;13.342;2023-05-11T12:39:18;92555.63;;;12.75;71.43
39613;BME280;25303;48.896;13.342;2023-05-11T12:42:02;92550.28;;;12.76;71.45
39613;BME280;25303;48.896;13.342;2023-05-11T12:44:46;92550.09;;;12.78;71.44
39613;BME280;25303;48.896;13.342;2023-05-11T12:47:30;92556.44;;;12.75;71.35
39613;BME280;25303;48.896;13.342;2023-05-11T12:50:14;92553.03;;;12.75;71.70
39613;BME280;25303;48.896;13.342;2023-05-11T12:53:10;92552.59;;;12.71;72.07
39613;BME280;25303;48.896;13.342;2023-05-11T12:55:57;92550.28;;;12.61;71.99
39613;BME280;25303;48.896;13.342;2023-05-11T12:58:40;92558.34;;;12.58;72.31
39613;BME280;25303;48.896;13.342;2023-05-11T13:01:23;92554.72;;;12.53;72.49
39613;BME280;25303;48.896;13.342;2023-05-11T13:04:07;92551.78;;;12.56;72.40
39613;BME280;25303;48.896;13.342;2023-05-11T13:06:51;92550.63;;;12.58;72.35
39613;BME280;25303;48.896;13.342;2023-05-11T13:09:34;92550.09;;;12.63;72.45
39613;BME280;25303;48.896;13.342;2023-05-11T13:12:18;92543.59;;;12.67;72.58
39613;BME280;25303;48.896;13.342;2023-05-11T13:15:06;92544.69;;;12.73;72.72
39613;BME280;25303;48.896;13.342;2023-05-11T13:17:55;92542.91;;;12.73;72.43
39613;BME280;25303;48.896;13.342;2023-05-11T13:20:39;92546.53;;;12.79;72.30
39613;BME280;25303;48.896;13.342;2023-05-11T13:23:25;92541.38;;;12.79;72.18
39613;BME280;25303;48.896;13.342;2023-05-11T13:26:08;92540.75;;;12.77;72.16
39613;BME280;25303;48.896;13.342;2023-05-11T13:28:51;92545.75;;;12.79;72.20
39613;BME280;25303;48.896;13.342;2023-05-11T13:31:52;92539.41;;;12.81;72.58
39613;BME280;25303;48.896;13.342;2023-05-11T13:34:35;92538.44;;;12.82;72.61
39613;BME280;25303;48.896;13.342;2023-05-11T13:37:18;92533.91;;;12.84;72.52
39613;BME280;25303;48.896;13.342;2023-05-11T13:40:03;92528.53;;;12.86;72.30
39613;BME280;25303;48.896;13.342;2023-05-11T13:42:46;92534.19;;;12.89;72.54
39613;BME280;25303;48.896;13.342;2023-05-11T13:45:29;92533.22;;;12.90;72.38
39613;BME280;25303;48.896;13.342;2023-05-11T13:48:12;92534.97;;;12.90;72.40
39613;BME280;25303;48.896;13.342;2023-05-11T13:50:56;92532.38;;;12.90;72.21
39613;BME280;25303;48.896;13.342;2023-05-11T13:53:39;92535.78;;;12.90;72.12
39613;BME280;25303;48.896;13.342;2023-05-11T13:56:23;92531.59;;;12.89;72.14
39613;BME280;25303;48.896;13.342;2023-05-11T13:59:06;92532.75;;;12.87;72.13
39613;BME280;25303;48.896;13.342;2023-05-11T14:01:49;92528.75;;;12.84;71.97
39613;BME280;25303;48.896;13.342;2023-05-11T14:04:34;92540.84;;;12.84;71.67
39613;BME280;25303;48.896;13.342;2023-05-11T14:07:17;92539.88;;;12.85;72.13
39613;BME280;25303;48.896;13.342;2023-05-11T14:10:00;92535.31;;;12.87;71.98
39613;BME280;25303;48.896;13.342;2023-05-11T14:12:44;92533.22;;;12.90;71.79
39613;BME280;25303;48.896;13.342;2023-05-11T14:15:27;92529.81;;;12.90;72.17
39613;BME280;25303;48.896;13.342;2023-05-11T14:18:10;92536.75;;;12.89;72.28
39613;BME280;25303;48.896;13.342;2023-05-11T14:20:53;92528.03;;;12.90;72.21
39613;BME280;25303;48.896;13.342;2023-05-11T14:23:37;92524.44;;;12.91;72.00
39613;BME280;25303;48.896;13.342;2023-05-11T14:26:30;92523.66;;;12.91;71.81